Time;durP1;ratioP1;P1;durP2;ratioP2;P2;SDS_P1;SDS_P2;PMS_P1;PMS_P2;Temp;Humidity;BMP_temperature;BMP_pressure;BME280_temperature;BME280_humidity;BME280_pressure;Samples;Min_cycle;Max_cycle;Signal;HPM_P1;HPM_P2
2023/01/27 00:00:55;;;;;;;;;;;;;;;2.39;89.58;94343.03;5033202;28;974;-52
2023/01/27 00:03:22;;;;;;;;;;;;;;;2.55;88.65;94347.84;5033085;28;1028;-52
2023/01/27 00:05:48;;;;;;;;;;;;;;;2.52;89.00;94340.16;5033269;28;1902;-52
2023/01/27 00:08:15;;;;;;;;;;;;;;;2.59;88.24;94335.22;5033321;28;986;-52
2023/01/27 00:10:41;;;;;;;;;;;;;;;2.55;88.39;94339.91;5033215;28;1057;-52
2023/01/27 00:13:25;;;;;;;;;;;;;;;2.56;87.93;94332.81;5033228;28;1021;-52
2023/01/27 00:15:52;;;;;;;;;;;;;;;2.53;88.19;94310.19;5037095;28;1038;-52
2023/01/27 00:18:18;;;;;;;;;;;;;;;2.47;88.75;94316.81;5036957;28;1132;-52
2023/01/27 00:26:17;;;;;;;;;;;;;;;2.30;89.54;94293.72;5036812;28;1906;-52
2023/01/27 00:28:44;;;;;;;;;;;;;;;2.40;88.59;94281.38;5036796;28;1102;-52
2023/01/27 00:34:00;;;;;;;;;;;;;;;2.35;88.50;94296.75;5016873;28;1193;-52
2023/01/27 00:36:28;;;;;;;;;;;;;;;2.48;87.41;94296.53;5016726;28;994;-52
2023/01/27 00:38:54;;;;;;;;;;;;;;;2.52;87.26;94305.84;5017096;28;978;-52
2023/01/27 00:41:21;;;;;;;;;;;;;;;2.51;87.92;94315.59;5016738;28;1057;-52
2023/01/27 00:43:49;;;;;;;;;;;;;;;2.46;88.56;94291.41;5016940;28;970;-52
2023/01/27 00:46:16;;;;;;;;;;;;;;;2.38;89.00;94288.59;5016785;28;1997;-52
2023/01/27 00:48:42;;;;;;;;;;;;;;;2.32;89.04;94308.44;5016730;28;1059;-52
2023/01/27 00:51:09;;;;;;;;;;;;;;;2.37;88.80;94318.56;5016688;28;1041;-52
2023/01/27 00:53:35;;;;;;;;;;;;;;;2.39;87.95;94324.59;5016712;28;966;-52
2023/01/27 00:56:01;;;;;;;;;;;;;;;2.53;86.59;94334.75;5016561;28;1013;-52
2023/01/27 00:58:27;;;;;;;;;;;;;;;2.57;86.77;94337.97;5016401;28;1050;-52
2023/01/27 01:00:54;;;;;;;;;;;;;;;2.56;87.43;94340.75;5016520;28;1020;-52
2023/01/27 01:03:21;;;;;;;;;;;;;;;2.54;87.81;94346.16;5016434;28;1040;-52
2023/01/27 01:05:47;;;;;;;;;;;;;;;2.49;88.75;94341.28;5016321;28;1991;-52
2023/01/27 01:08:13;;;;;;;;;;;;;;;2.50;88.86;94337.69;5016555;28;1033;-52
2023/01/27 01:10:40;;;;;;;;;;;;;;;2.47;88.73;94323.91;5016261;28;1097;-52
2023/01/27 01:13:10;;;;;;;;;;;;;;;2.40;89.79;94314.84;5016445;28;1000;-52
2023/01/27 01:15:37;;;;;;;;;;;;;;;2.42;89.82;94319.03;5016175;28;1077;-52
2023/01/27 01:18:03;;;;;;;;;;;;;;;2.45;89.21;94315.31;5016209;28;1021;-52
2023/01/27 01:20:29;;;;;;;;;;;;;;;2.46;89.53;94317.78;5016028;28;1056;-52
2023/01/27 01:22:56;;;;;;;;;;;;;;;2.44;89.82;94321.53;5016287;28;982;-52
2023/01/27 01:25:22;;;;;;;;;;;;;;;2.42;89.06;94321.66;5015130;28;1910;-52
2023/01/27 01:27:48;;;;;;;;;;;;;;;2.42;88.65;94313.75;5016115;28;1056;-52
2023/01/27 01:30:14;;;;;;;;;;;;;;;2.41;89.05;94312.09;5015900;28;1033;-53
2023/01/27 01:32:40;;;;;;;;;;;;;;;2.46;88.45;94307.22;5027985;28;1627;-52
2023/01/27 01:35:06;;;;;;;;;;;;;;;2.47;88.40;94298.34;5034317;28;1102;-52
2023/01/27 01:37:32;;;;;;;;;;;;;;;2.43;88.80;94289.03;5035760;28;1048;-52
2023/01/27 01:39:58;;;;;;;;;;;;;;;2.30;89.70;94285.78;5035519;28;1066;-52
2023/01/27 01:42:24;;;;;;;;;;;;;;;2.36;90.02;94281.78;5035416;28;1018;-52
2023/01/27 01:45:10;;;;;;;;;;;;;;;2.40;90.04;94291.09;5035542;28;1036;-52
2023/01/27 01:47:37;;;;;;;;;;;;;;;2.43;90.15;94288.19;5035135;28;1386;-52
2023/01/27 01:50:03;;;;;;;;;;;;;;;2.40;89.63;94291.09;5035321;28;1128;-53
2023/01/27 01:52:29;;;;;;;;;;;;;;;2.25;91.00;94288.81;5035187;28;1049;-52
2023/01/27 01:54:55;;;;;;;;;;;;;;;2.27;91.39;94294.78;5035388;28;954;-52
2023/01/27 01:57:25;;;;;;;;;;;;;;;2.33;91.27;94285.50;5035220;28;1000;-52
2023/01/27 02:00:11;;;;;;;;;;;;;;;2.33;91.18;94275.81;5035265;28;958;-52
2023/01/27 02:02:38;;;;;;;;;;;;;;;2.36;91.02;94282.63;5034884;28;2234;-52
2023/01/27 02:05:10;;;;;;;;;;;;;;;2.36;90.98;94285.25;5035162;28;1913;-52
2023/01/27 02:07:41;;;;;;;;;;;;;;;2.33;91.19;94283.72;5034886;28;1070;-52
2023/01/27 02:10:07;;;;;;;;;;;;;;;2.30;91.33;94277.88;5034981;28;1014;-52
2023/01/27 02:12:33;;;;;;;;;;;;;;;2.26;91.64;94273.84;5034889;28;1033;-52
2023/01/27 02:14:59;;;;;;;;;;;;;;;2.29;91.31;94270.91;5034818;28;962;-52
2023/01/27 02:17:27;;;;;;;;;;;;;;;2.28;91.54;94267.47;5034992;28;962;-52
2023/01/27 02:20:02;;;;;;;;;;;;;;;2.24;91.67;94265.19;5034940;28;1041;-52
2023/01/27 02:22:45;;;;;;;;;;;;;;;2.26;91.69;94265.94;5034602;28;1081;-52
2023/01/27 02:25:18;;;;;;;;;;;;;;;2.30;91.22;94264.69;5034606;28;1990;-52
2023/01/27 02:27:44;;;;;;;;;;;;;;;2.32;91.47;94265.41;5034849;28;1041;-52
2023/01/27 02:30:10;;;;;;;;;;;;;;;2.34;91.45;94263.47;5034703;28;986;-52
2023/01/27 02:32:36;;;;;;;;;;;;;;;2.32;91.48;94258.31;5034375;28;1598;-52
2023/01/27 02:35:04;;;;;;;;;;;;;;;2.36;91.49;94265.97;5034366;28;1115;-52
2023/01/27 02:37:30;;;;;;;;;;;;;;;2.33;91.10;94267.03;5034355;28;1025;-52
2023/01/27 02:39:57;;;;;;;;;;;;;;;2.35;91.20;94259.84;5034308;28;1041;-52
2023/01/27 02:42:23;;;;;;;;;;;;;;;2.39;90.88;94255.97;5034481;28;1009;-52
2023/01/27 02:44:49;;;;;;;;;;;;;;;2.39;91.05;94255.13;5034470;28;1044;-52
2023/01/27 02:47:15;;;;;;;;;;;;;;;2.36;91.18;94250.97;5034248;28;1971;-52
2023/01/27 02:49:41;;;;;;;;;;;;;;;2.29;91.29;94249.81;5034295;28;950;-52
2023/01/27 02:52:07;;;;;;;;;;;;;;;2.22;91.88;94248.69;5034263;28;1048;-52
2023/01/27 02:54:33;;;;;;;;;;;;;;;2.16;92.33;94247.41;5034046;28;1029;-52
2023/01/27 02:56:59;;;;;;;;;;;;;;;2.11;92.68;94234.63;5034326;28;1016;-52
2023/01/27 02:59:25;;;;;;;;;;;;;;;2.12;93.19;94225.72;5034213;28;993;-52
2023/01/27 03:01:51;;;;;;;;;;;;;;;2.11;93.45;94223.25;5034193;28;1029;-52
2023/01/27 03:04:17;;;;;;;;;;;;;;;2.02;94.05;94224.03;5033822;28;1112;-52
2023/01/27 03:06:44;;;;;;;;;;;;;;;1.94;93.90;94235.25;5033845;28;1984;-52
2023/01/27 03:09:10;;;;;;;;;;;;;;;1.94;94.47;94229.97;5033871;28;1101;-52
2023/01/27 03:14:20;;;;;;;;;;;;;;;2.01;93.82;94225.84;5033977;28;1059;-52
2023/01/27 03:19:31;;;;;;;;;;;;;;;2.02;93.90;94214.31;5033682;28;1132;-52
2023/01/27 03:22:00;;;;;;;;;;;;;;;2.05;93.62;94213.22;5032774;28;966;-52
2023/01/27 03:24:26;;;;;;;;;;;;;;;2.09;93.33;94207.56;5033732;28;977;-52
2023/01/27 03:26:52;;;;;;;;;;;;;;;2.15;93.37;94208.81;5033680;28;1991;-52
2023/01/27 03:32:03;;;;;;;;;;;;;;;1.95;93.76;94206.13;5033556;28;1293;-52
2023/01/27 03:34:29;;;;;;;;;;;;;;;2.07;94.11;94192.84;5033279;28;1094;-52
2023/01/27 03:47:54;;;;;;;;;;;;;;;2.09;92.32;94212.84;5033581;28;966;-52
2023/01/27 03:50:29;;;;;;;;;;;;;;;2.18;91.84;94213.00;5032891;28;1076;-52
2023/01/27 03:53:01;;;;;;;;;;;;;;;2.14;91.64;94207.16;5033400;28;1240;-52
2023/01/27 03:55:31;;;;;;;;;;;;;;;2.17;91.64;94206.06;5033177;28;1073;-52
2023/01/27 03:58:16;;;;;;;;;;;;;;;2.17;91.56;94213.97;5033422;28;1203;-52
2023/01/27 04:00:43;;;;;;;;;;;;;;;2.09;91.93;94212.84;5033427;28;1054;-52
2023/01/27 04:08:41;;;;;;;;;;;;;;;2.06;91.83;94202.53;5033113;28;994;-52
2023/01/27 04:13:51;;;;;;;;;;;;;;;2.17;91.88;94206.06;5033065;28;1105;-52
2023/01/27 04:16:18;;;;;;;;;;;;;;;2.20;92.20;94209.28;5032990;28;954;-52
2023/01/27 04:18:45;;;;;;;;;;;;;;;2.20;91.71;94211.06;5033235;28;1045;-52
2023/01/27 04:21:12;;;;;;;;;;;;;;;2.23;91.90;94206.34;5033154;28;1052;-52
2023/01/27 04:23:38;;;;;;;;;;;;;;;2.23;91.94;94216.06;5032979;28;1124;-52
2023/01/27 04:26:05;;;;;;;;;;;;;;;2.16;92.49;94218.38;5031784;28;2018;-52
2023/01/27 04:28:31;;;;;;;;;;;;;;;2.11;92.89;94221.44;5032832;28;1101;-50
2023/01/27 04:30:57;;;;;;;;;;;;;;;2.15;93.02;94225.47;5032920;28;1065;-52
2023/01/27 04:33:23;;;;;;;;;;;;;;;2.20;92.86;94217.19;5032740;28;1548;-53
2023/01/27 04:35:50;;;;;;;;;;;;;;;2.16;93.21;94228.94;5031907;28;966;-51
2023/01/27 04:38:15;;;;;;;;;;;;;;;2.12;93.38;94217.81;5032921;28;1042;-52
2023/01/27 04:40:42;;;;;;;;;;;;;;;2.18;92.85;94221.72;5032915;28;1057;-52
2023/01/27 04:43:08;;;;;;;;;;;;;;;2.14;92.62;94223.81;5032848;28;1037;-52
2023/01/27 04:45:34;;;;;;;;;;;;;;;2.09;93.15;94228.66;5032697;28;1918;-52
2023/01/27 04:48:00;;;;;;;;;;;;;;;2.10;93.02;94237.38;5032994;28;1041;-52
2023/01/27 04:50:26;;;;;;;;;;;;;;;2.01;93.20;94238.16;5031685;28;1019;-52
2023/01/27 04:52:52;;;;;;;;;;;;;;;1.97;93.41;94253.41;5032930;28;1005;-52
2023/01/27 04:55:18;;;;;;;;;;;;;;;2.05;93.05;94261.53;5032767;28;989;-52
2023/01/27 04:57:44;;;;;;;;;;;;;;;2.06;92.59;94268.47;5032727;28;1045;-52
2023/01/27 05:00:11;;;;;;;;;;;;;;;1.95;92.69;94276.44;5032657;28;1100;-52
2023/01/27 05:02:37;;;;;;;;;;;;;;;1.79;93.37;94271.66;5036155;28;1045;-52
2023/01/27 05:05:03;;;;;;;;;;;;;;;1.83;93.59;94267.78;5035112;28;1989;-52
2023/01/27 05:07:30;;;;;;;;;;;;;;;2.00;93.03;94263.72;5036247;28;966;-52
2023/01/27 05:09:56;;;;;;;;;;;;;;;2.12;92.27;94267.09;5036030;28;1053;-52
2023/01/27 05:12:22;;;;;;;;;;;;;;;2.14;92.51;94265.16;5035997;28;1037;-51
2023/01/27 05:14:48;;;;;;;;;;;;;;;2.19;92.75;94265.59;5036029;28;1078;-52
2023/01/27 05:17:14;;;;;;;;;;;;;;;2.23;92.16;94266.19;5035963;28;1045;-52
2023/01/27 05:19:40;;;;;;;;;;;;;;;2.34;91.47;94252.91;5035782;28;1046;-52
2023/01/27 05:22:06;;;;;;;;;;;;;;;2.49;91.01;94235.72;5036055;28;1062;-51
2023/01/27 05:24:32;;;;;;;;;;;;;;;2.49;90.12;94233.09;5034682;28;1037;-52
2023/01/27 05:26:58;;;;;;;;;;;;;;;2.39;90.84;94228.75;5035701;28;1989;-52
2023/01/27 05:29:24;;;;;;;;;;;;;;;2.40;91.30;94239.16;5035622;28;1872;-52
2023/01/27 05:31:50;;;;;;;;;;;;;;;2.51;90.73;94254.06;5035817;28;1072;-52
2023/01/27 05:34:16;;;;;;;;;;;;;;;2.41;90.68;94250.56;5035580;28;1090;-52
2023/01/27 05:36:42;;;;;;;;;;;;;;;2.36;91.25;94261.50;5035528;28;966;-52
2023/01/27 05:39:09;;;;;;;;;;;;;;;2.28;91.80;94261.34;5035616;28;1057;-52
2023/01/27 05:41:35;;;;;;;;;;;;;;;2.41;91.74;94267.25;5035375;28;1049;-51
2023/01/27 05:44:02;;;;;;;;;;;;;;;2.45;91.54;94271.28;5035425;28;1017;-51
2023/01/27 05:46:29;;;;;;;;;;;;;;;2.48;91.43;94271.00;5035175;28;1983;-52
2023/01/27 05:48:57;;;;;;;;;;;;;;;2.48;91.65;94251.69;5035542;28;1020;-51
2023/01/27 05:51:24;;;;;;;;;;;;;;;2.64;90.12;94267.88;5035351;28;1058;-51
2023/01/27 05:53:50;;;;;;;;;;;;;;;2.73;88.77;94266.19;5035299;28;966;-51
2023/01/27 05:56:17;;;;;;;;;;;;;;;2.82;87.59;94270.66;5035262;28;962;-52
2023/01/27 05:58:43;;;;;;;;;;;;;;;2.82;87.55;94272.50;5035168;28;1017;-52
2023/01/27 06:01:11;;;;;;;;;;;;;;;2.73;88.28;94274.13;5035169;28;1089;-52
2023/01/27 06:03:37;;;;;;;;;;;;;;;2.74;88.30;94278.44;5035073;28;1081;-52
2023/01/27 06:06:04;;;;;;;;;;;;;;;2.72;88.02;94261.91;5033924;28;1981;-52
2023/01/27 06:08:31;;;;;;;;;;;;;;;2.70;88.40;94269.97;5034939;28;1113;-52
2023/01/27 06:10:57;;;;;;;;;;;;;;;2.71;88.12;94276.06;5034865;28;1113;-52
2023/01/27 06:13:23;;;;;;;;;;;;;;;2.71;88.04;94284.84;5034637;28;1068;-52
2023/01/27 06:15:49;;;;;;;;;;;;;;;2.81;87.34;94287.50;5035064;28;978;-52
2023/01/27 06:18:17;;;;;;;;;;;;;;;2.80;87.37;94277.06;5034999;28;978;-52
2023/01/27 06:20:43;;;;;;;;;;;;;;;2.75;88.04;94282.72;5034652;28;1117;-52
2023/01/27 06:23:10;;;;;;;;;;;;;;;2.81;87.59;94286.63;5034834;28;1289;-52
2023/01/27 06:25:38;;;;;;;;;;;;;;;2.80;87.17;94288.47;5033407;28;1918;-52
2023/01/27 06:28:04;;;;;;;;;;;;;;;2.83;86.69;94288.19;5034585;28;934;-54
2023/01/27 06:30:30;;;;;;;;;;;;;;;2.83;86.46;94284.72;5033524;28;1045;-53
2023/01/27 06:32:56;;;;;;;;;;;;;;;2.88;86.24;94291.28;5034458;28;1459;-53
2023/01/27 06:35:22;;;;;;;;;;;;;;;2.96;86.21;94281.81;5034383;28;1097;-52
2023/01/27 06:37:50;;;;;;;;;;;;;;;3.00;85.68;94275.28;5034487;28;1062;-51
2023/01/27 06:40:16;;;;;;;;;;;;;;;2.95;85.48;94269.59;5034309;28;1128;-52
2023/01/27 06:42:44;;;;;;;;;;;;;;;2.99;85.37;94265.72;5033201;28;1568;-51
2023/01/27 06:45:11;;;;;;;;;;;;;;;3.15;84.89;94260.75;5034494;28;1906;-51
2023/01/27 06:47:39;;;;;;;;;;;;;;;3.09;84.50;94263.91;5034434;28;1162;-51
2023/01/27 06:50:06;;;;;;;;;;;;;;;3.07;84.89;94271.13;5034308;28;1207;-51
2023/01/27 06:52:33;;;;;;;;;;;;;;;3.06;84.91;94264.19;5034204;28;1033;-51
2023/01/27 06:54:59;;;;;;;;;;;;;;;3.00;85.06;94277.94;5034113;28;1065;-51
2023/01/27 06:57:25;;;;;;;;;;;;;;;2.95;85.92;94277.53;5033907;28;1093;-52
2023/01/27 06:59:51;;;;;;;;;;;;;;;2.82;87.13;94283.03;5034249;28;982;-50
2023/01/27 07:02:17;;;;;;;;;;;;;;;2.77;88.79;94274.69;5034000;28;1026;-51
2023/01/27 07:04:43;;;;;;;;;;;;;;;2.83;89.18;94272.34;5033973;28;1626;-51
2023/01/27 07:07:09;;;;;;;;;;;;;;;2.91;88.75;94275.16;5033753;28;1914;-51
2023/01/27 07:09:35;;;;;;;;;;;;;;;3.05;87.80;94275.72;5033828;28;1040;-51
2023/01/27 07:12:01;;;;;;;;;;;;;;;3.06;87.58;94266.84;5033781;28;1092;-50
2023/01/27 07:14:27;;;;;;;;;;;;;;;2.93;88.61;94270.56;5033910;28;1089;-50
2023/01/27 07:16:53;;;;;;;;;;;;;;;3.01;88.58;94269.03;5033906;28;1008;-50
2023/01/27 07:19:19;;;;;;;;;;;;;;;3.08;88.08;94265.72;5033755;28;1045;-50
2023/01/27 07:21:45;;;;;;;;;;;;;;;3.08;88.52;94260.44;5033767;28;1001;-50
2023/01/27 07:24:11;;;;;;;;;;;;;;;3.05;88.66;94257.22;5031615;28;1018;-50
2023/01/27 07:26:38;;;;;;;;;;;;;;;3.16;88.43;94259.75;5032327;28;1910;-50
2023/01/27 07:29:04;;;;;;;;;;;;;;;3.22;88.03;94272.41;5033616;28;1038;-49
2023/01/27 07:31:32;;;;;;;;;;;;;;;3.24;87.25;94266.97;5033382;28;1234;-50
2023/01/27 07:33:58;;;;;;;;;;;;;;;3.40;86.87;94266.44;5033395;28;1224;-50
2023/01/27 07:36:24;;;;;;;;;;;;;;;3.51;86.25;94267.13;5033364;28;1029;-51
2023/01/27 07:38:50;;;;;;;;;;;;;;;3.40;86.15;94275.19;5032658;28;1101;-51
2023/01/27 07:41:16;;;;;;;;;;;;;;;3.26;87.23;94279.09;5033600;28;1029;-50
2023/01/27 07:43:43;;;;;;;;;;;;;;;3.24;87.80;94272.25;5033373;28;998;-51
2023/01/27 07:46:09;;;;;;;;;;;;;;;3.31;88.04;94276.84;5033217;28;1906;-51
2023/01/27 07:48:35;;;;;;;;;;;;;;;3.26;87.63;94276.47;5033194;28;1061;-51
2023/01/27 07:51:01;;;;;;;;;;;;;;;3.24;88.16;94270.44;5033198;28;1056;-51
2023/01/27 07:53:27;;;;;;;;;;;;;;;3.25;88.72;94268.66;5033136;28;1045;-51
2023/01/27 07:55:53;;;;;;;;;;;;;;;3.39;88.87;94272.69;5033073;28;922;-51
2023/01/27 07:58:19;;;;;;;;;;;;;;;3.47;88.37;94275.47;5033279;28;1111;-51
2023/01/27 08:00:45;;;;;;;;;;;;;;;3.39;88.48;94267.41;5033109;28;1089;-51
2023/01/27 08:03:22;;;;;;;;;;;;;;;3.32;88.66;94270.63;5033158;28;1053;-51
2023/01/27 08:05:48;;;;;;;;;;;;;;;3.54;87.80;94252.78;5033009;28;1906;-50
2023/01/27 08:08:15;;;;;;;;;;;;;;;3.60;87.31;94252.22;5033068;28;962;-52
2023/01/27 08:10:45;;;;;;;;;;;;;;;3.74;86.39;94265.97;5032920;28;1084;-52
2023/01/27 08:13:12;;;;;;;;;;;;;;;3.74;84.98;94261.56;5033347;28;989;-52
2023/01/27 08:15:38;;;;;;;;;;;;;;;3.80;84.39;94260.16;5031750;28;1105;-51
2023/01/27 08:18:04;;;;;;;;;;;;;;;3.89;84.06;94262.78;5033040;28;1045;-52
2023/01/27 08:20:31;;;;;;;;;;;;;;;3.95;83.92;94258.72;5032889;28;970;-51
2023/01/27 08:22:57;;;;;;;;;;;;;;;4.07;82.96;94257.56;5032899;28;937;-51
2023/01/27 08:25:23;;;;;;;;;;;;;;;4.03;82.84;94253.56;5032990;28;2008;-52
2023/01/27 08:27:50;;;;;;;;;;;;;;;4.16;81.07;94253.25;5033087;28;1004;-52
2023/01/27 08:30:16;;;;;;;;;;;;;;;4.11;81.76;94252.81;5033044;28;1053;-52
2023/01/27 08:32:42;;;;;;;;;;;;;;;4.16;82.25;94255.06;5032750;28;1241;-52
2023/01/27 08:35:08;;;;;;;;;;;;;;;4.26;81.05;94261.13;5033841;28;1159;-52
2023/01/27 08:37:34;;;;;;;;;;;;;;;4.35;80.86;94256.81;5036474;28;1039;-51
2023/01/27 08:40:00;;;;;;;;;;;;;;;4.40;80.31;94260.69;5036810;28;1068;-52
2023/01/27 08:42:26;;;;;;;;;;;;;;;4.30;80.91;94268.63;5036693;28;965;-52
2023/01/27 08:44:52;;;;;;;;;;;;;;;4.18;82.45;94282.22;5036608;28;1034;-52
2023/01/27 08:47:18;;;;;;;;;;;;;;;3.96;82.53;94278.06;5036348;28;1906;-51
2023/01/27 08:49:45;;;;;;;;;;;;;;;3.87;82.75;94271.81;5036392;28;1068;-52
2023/01/27 08:52:11;;;;;;;;;;;;;;;4.01;82.36;94274.03;5036269;28;1045;-52
2023/01/27 08:54:37;;;;;;;;;;;;;;;3.97;81.77;94271.81;5036257;28;1037;-52
2023/01/27 08:57:03;;;;;;;;;;;;;;;3.99;81.97;94281.28;5036362;28;1044;-52
2023/01/27 08:59:29;;;;;;;;;;;;;;;3.89;83.06;94272.53;5036315;28;1048;-51
2023/01/27 09:01:55;;;;;;;;;;;;;;;3.95;83.09;94264.03;5036341;28;993;-52
2023/01/27 09:04:21;;;;;;;;;;;;;;;4.02;82.11;94264.25;5036171;28;1060;-52
2023/01/27 09:06:49;;;;;;;;;;;;;;;3.88;83.55;94257.63;5035963;28;1898;-52
2023/01/27 09:09:15;;;;;;;;;;;;;;;3.96;83.49;94259.56;5036246;28;962;-52
2023/01/27 09:11:43;;;;;;;;;;;;;;;4.06;82.18;94260.34;5035967;28;1045;-52
2023/01/27 09:14:10;;;;;;;;;;;;;;;4.07;82.33;94262.03;5036178;28;1044;-52
2023/01/27 09:16:36;;;;;;;;;;;;;;;4.06;82.72;94255.91;5035790;28;1041;-52
2023/01/27 09:19:03;;;;;;;;;;;;;;;4.06;82.36;94253.28;5036023;28;1076;-52
2023/01/27 09:21:29;;;;;;;;;;;;;;;4.06;82.00;94250.63;5035665;28;1061;-51
2023/01/27 09:23:55;;;;;;;;;;;;;;;3.98;82.28;94250.50;5036046;28;1025;-51
2023/01/27 09:26:21;;;;;;;;;;;;;;;3.95;83.10;94256.09;5035791;28;1914;-51
2023/01/27 09:28:47;;;;;;;;;;;;;;;3.88;84.44;94253.16;5035883;28;1042;-51
2023/01/27 09:31:13;;;;;;;;;;;;;;;3.91;83.17;94257.34;5035651;28;1320;-51
2023/01/27 09:33:39;;;;;;;;;;;;;;;3.88;82.61;94270.84;5035377;28;1094;-51
2023/01/27 09:36:10;;;;;;;;;;;;;;;3.91;82.81;94268.75;5035513;28;1037;-51
2023/01/27 09:38:59;;;;;;;;;;;;;;;3.96;82.93;94264.84;5035484;28;1265;-51
2023/01/27 09:41:41;;;;;;;;;;;;;;;3.97;81.50;94259.41;5035463;28;1052;-51
2023/01/27 09:44:13;;;;;;;;;;;;;;;3.88;84.26;94249.69;5035509;28;1182;-50
2023/01/27 09:46:42;;;;;;;;;;;;;;;3.91;82.63;94258.19;5034645;28;1910;-51
2023/01/27 09:49:08;;;;;;;;;;;;;;;3.88;82.61;94252.34;5035283;28;1113;-51
2023/01/27 09:51:40;;;;;;;;;;;;;;;3.88;83.27;94241.75;5035355;28;1260;-51
2023/01/27 09:54:29;;;;;;;;;;;;;;;3.91;82.99;94234.38;5035363;28;982;-51
2023/01/27 09:57:06;;;;;;;;;;;;;;;3.83;81.93;94228.13;5035141;28;1088;-51
2023/01/27 09:59:38;;;;;;;;;;;;;;;3.88;81.89;94231.19;5035278;28;1064;-50
2023/01/27 10:02:07;;;;;;;;;;;;;;;3.90;81.48;94232.69;5035247;28;1036;-51
2023/01/27 10:04:36;;;;;;;;;;;;;;;3.95;81.29;94227.00;5035076;28;1029;-51
2023/01/27 10:07:11;;;;;;;;;;;;;;;4.03;80.75;94216.53;5034989;28;2005;-51
2023/01/27 10:09:56;;;;;;;;;;;;;;;4.00;81.59;94208.03;5034814;28;953;-50
2023/01/27 10:12:40;;;;;;;;;;;;;;;3.91;81.51;94212.41;5034783;28;1101;-51
2023/01/27 10:15:12;;;;;;;;;;;;;;;3.86;83.02;94210.16;5035004;28;1107;-51
2023/01/27 10:18:14;;;;;;;;;;;;;;;3.98;83.13;94202.88;5034580;28;1073;-51
2023/01/27 10:21:00;;;;;;;;;;;;;;;3.91;83.54;94210.56;4957616;28;1392;-51
2023/01/27 10:23:44;;;;;;;;;;;;;;;3.97;83.69;94214.47;5030484;28;1074;-51
2023/01/27 10:26:11;;;;;;;;;;;;;;;4.04;83.33;94209.41;5034423;28;1910;-51
2023/01/27 10:28:38;;;;;;;;;;;;;;;4.23;81.86;94205.84;5034784;28;973;-51
2023/01/27 10:31:10;;;;;;;;;;;;;;;4.25;81.94;94206.53;5034746;28;977;-51
2023/01/27 10:33:57;;;;;;;;;;;;;;;4.13;82.58;94195.31;5014656;28;1257;-51
2023/01/27 10:36:27;;;;;;;;;;;;;;;4.02;82.79;94193.72;5014659;28;1001;-51
2023/01/27 10:39:15;;;;;;;;;;;;;;;4.04;82.79;94190.88;5014709;28;1036;-51
2023/01/27 10:41:48;;;;;;;;;;;;;;;4.01;81.89;94184.09;5014489;28;1105;-51
2023/01/27 10:44:33;;;;;;;;;;;;;;;4.05;82.24;94182.00;5014665;28;1033;-51
2023/01/27 10:47:05;;;;;;;;;;;;;;;4.14;81.65;94182.94;5014333;28;1907;-51
2023/01/27 10:49:45;;;;;;;;;;;;;;;4.28;81.48;94191.22;5014356;28;1014;-51
2023/01/27 10:52:17;;;;;;;;;;;;;;;4.24;82.98;94187.19;5014638;28;966;-51
2023/01/27 10:54:59;;;;;;;;;;;;;;;4.37;81.92;94193.97;5014343;28;1042;-51
2023/01/27 10:57:29;;;;;;;;;;;;;;;4.32;82.20;94197.03;5014142;28;1057;-51
2023/01/27 11:00:14;;;;;;;;;;;;;;;4.31;82.46;94187.47;5014330;28;1054;-51
2023/01/27 11:02:52;;;;;;;;;;;;;;;4.20;81.84;94190.28;5014013;28;919;-51
2023/01/27 11:05:20;;;;;;;;;;;;;;;4.14;82.67;94188.25;5014121;28;1910;-51
2023/01/27 11:07:48;;;;;;;;;;;;;;;4.07;83.10;94185.31;5014125;28;971;-51
2023/01/27 11:10:17;;;;;;;;;;;;;;;3.91;84.05;94181.47;5013969;28;1037;-51
2023/01/27 11:12:47;;;;;;;;;;;;;;;3.90;84.52;94182.44;5014022;28;1037;-51
2023/01/27 11:15:17;;;;;;;;;;;;;;;3.93;85.64;94184.00;5014022;28;1034;-51
2023/01/27 11:17:46;;;;;;;;;;;;;;;3.97;85.13;94182.72;5014216;28;1033;-51
2023/01/27 11:20:28;;;;;;;;;;;;;;;3.89;85.42;94177.31;5013925;28;1058;-51
2023/01/27 11:23:03;;;;;;;;;;;;;;;3.86;85.68;94170.50;5014207;28;1024;-51
2023/01/27 11:25:35;;;;;;;;;;;;;;;3.88;86.08;94173.00;5013876;28;1993;-51
2023/01/27 11:28:19;;;;;;;;;;;;;;;3.86;86.45;94175.78;5013921;28;974;-51
2023/01/27 11:34:32;;;;;;;;;;;;;;;3.95;86.29;94168.81;4969585;28;1107;-51
2023/01/27 11:36:59;;;;;;;;;;;;;;;3.91;85.67;94162.16;4972476;28;1094;-51
2023/01/27 11:39:31;;;;;;;;;;;;;;;3.92;86.44;94169.91;4972700;28;1030;-50
2023/01/27 11:41:57;;;;;;;;;;;;;;;3.86;86.11;94167.03;4972394;28;1081;-51
2023/01/27 11:44:26;;;;;;;;;;;;;;;3.80;86.32;94163.16;4972377;28;1018;-51
2023/01/27 11:46:53;;;;;;;;;;;;;;;3.67;88.37;94168.75;4972337;28;1902;-51
2023/01/27 11:49:35;;;;;;;;;;;;;;;3.72;87.82;94165.69;4956248;28;1133;-50
2023/01/27 11:52:09;;;;;;;;;;;;;;;3.79;86.89;94168.56;4972397;28;1057;-51
2023/01/27 11:54:39;;;;;;;;;;;;;;;3.71;88.22;94166.66;4972278;28;981;-51
2023/01/27 11:57:11;;;;;;;;;;;;;;;3.75;88.28;94161.91;4972191;28;1085;-51
2023/01/27 11:59:38;;;;;;;;;;;;;;;3.88;87.79;94165.91;4972192;28;1077;-51
2023/01/27 12:02:07;;;;;;;;;;;;;;;3.98;86.82;94159.75;4972227;28;975;-51
2023/01/27 12:04:36;;;;;;;;;;;;;;;3.94;87.15;94161.84;4993625;28;1046;-51
2023/01/27 12:07:12;;;;;;;;;;;;;;;3.94;86.12;94156.53;5013326;28;1906;-51
2023/01/27 12:09:39;;;;;;;;;;;;;;;3.86;86.86;94159.91;5012708;28;1024;-51
2023/01/27 12:12:10;;;;;;;;;;;;;;;3.89;86.66;94164.94;5017500;28;1037;-51
2023/01/27 12:14:36;;;;;;;;;;;;;;;3.92;86.50;94169.91;5017212;28;1045;-51
2023/01/27 12:17:03;;;;;;;;;;;;;;;3.90;86.19;94163.94;5017286;28;1028;-51
2023/01/27 12:19:33;;;;;;;;;;;;;;;3.84;86.16;94166.34;5017450;28;1033;-51
2023/01/27 12:22:01;;;;;;;;;;;;;;;3.82;86.51;94173.59;5017578;28;1025;-51
2023/01/27 12:24:30;;;;;;;;;;;;;;;3.79;87.54;94168.56;5017252;28;1041;-51
2023/01/27 12:26:57;;;;;;;;;;;;;;;3.69;88.18;94174.72;5017064;28;1883;-51
2023/01/27 12:29:26;;;;;;;;;;;;;;;3.76;87.70;94182.09;5016947;28;1072;-51
2023/01/27 12:31:53;;;;;;;;;;;;;;;3.74;87.06;94174.31;5022502;28;1167;-51
2023/01/27 12:34:25;;;;;;;;;;;;;;;3.75;87.57;94175.97;5036419;28;1208;-51
2023/01/27 12:36:52;;;;;;;;;;;;;;;3.81;87.15;94174.56;5036749;28;1049;-51
2023/01/27 12:39:30;;;;;;;;;;;;;;;3.80;87.80;94173.72;5036741;28;981;-51
2023/01/27 12:41:57;;;;;;;;;;;;;;;3.71;88.48;94177.22;5036487;28;1122;-51
2023/01/27 12:44:24;;;;;;;;;;;;;;;3.77;87.90;94170.53;5036702;28;1049;-51
2023/01/27 12:46:56;;;;;;;;;;;;;;;3.67;88.13;94166.09;5036518;28;1910;-51
2023/01/27 12:49:23;;;;;;;;;;;;;;;3.64;88.33;94166.41;5036549;28;985;-51
2023/01/27 12:51:52;;;;;;;;;;;;;;;3.61;89.05;94171.16;5036404;28;1045;-51
2023/01/27 12:54:23;;;;;;;;;;;;;;;3.62;89.09;94167.50;5036469;28;1048;-51
2023/01/27 12:56:50;;;;;;;;;;;;;;;3.65;89.00;94168.06;5036248;28;1105;-51
2023/01/27 12:59:17;;;;;;;;;;;;;;;3.61;88.89;94160.56;5036384;28;1038;-51
2023/01/27 13:01:55;;;;;;;;;;;;;;;3.55;89.00;94161.13;5036302;28;1119;-51
2023/01/27 13:04:25;;;;;;;;;;;;;;;3.45;89.64;94169.06;5036406;28;1038;-51
2023/01/27 13:07:02;;;;;;;;;;;;;;;3.57;88.95;94165.31;5036199;28;1992;-51
2023/01/27 13:09:37;;;;;;;;;;;;;;;3.56;89.50;94168.09;5036129;28;1037;-50
2023/01/27 13:12:19;;;;;;;;;;;;;;;3.66;88.82;94169.75;5036031;28;1038;-51
2023/01/27 13:14:48;;;;;;;;;;;;;;;3.57;89.87;94165.31;5035972;28;1040;-51
2023/01/27 13:17:37;;;;;;;;;;;;;;;3.53;90.33;94163.94;5036115;28;950;-51
2023/01/27 13:20:15;;;;;;;;;;;;;;;3.65;89.64;94162.78;5028084;28;1057;-51
2023/01/27 13:22:44;;;;;;;;;;;;;;;3.66;89.43;94153.88;5034589;28;1030;-51
2023/01/27 13:25:33;;;;;;;;;;;;;;;3.63;90.04;94167.38;5035845;28;1085;-50
2023/01/27 13:27:59;;;;;;;;;;;;;;;3.58;90.56;94168.78;5027992;28;1467;-51
2023/01/27 13:30:43;;;;;;;;;;;;;;;3.46;91.86;94168.09;5035714;28;977;-51
2023/01/27 13:33:18;;;;;;;;;;;;;;;3.50;91.63;94162.38;5035566;28;1250;-51
2023/01/27 13:35:52;;;;;;;;;;;;;;;3.48;92.17;94160.88;5035486;28;1140;-51
2023/01/27 13:38:23;;;;;;;;;;;;;;;3.49;92.06;94159.88;5034296;28;1211;-51
2023/01/27 13:40:49;;;;;;;;;;;;;;;3.54;92.12;94164.75;5035506;28;981;-51
2023/01/27 13:43:35;;;;;;;;;;;;;;;3.63;91.86;94164.72;5035448;28;1046;-51
2023/01/27 13:46:13;;;;;;;;;;;;;;;3.71;91.31;94167.47;5035362;28;1906;-51
2023/01/27 13:48:41;;;;;;;;;;;;;;;3.69;91.43;94169.44;5035323;28;1121;-51
2023/01/27 13:51:10;;;;;;;;;;;;;;;3.79;90.70;94163.28;5035276;28;989;-51
2023/01/27 13:53:37;;;;;;;;;;;;;;;3.79;90.40;94173.88;5035314;28;958;-51
2023/01/27 13:56:18;;;;;;;;;;;;;;;3.50;91.84;94180.06;5035429;28;1080;-51
2023/01/27 13:58:50;;;;;;;;;;;;;;;3.46;92.30;94174.22;5035366;28;986;-51